Time;durP1;ratioP1;P1;durP2;ratioP2;P2;SDS_P1;SDS_P2;PMS_P1;PMS_P2;Temp;Humidity;BMP_temperature;BMP_pressure;BME280_temperature;BME280_humidity;BME280_pressure;Samples;Min_cycle;Max_cycle;Signal;HPM_P1;HPM_P2
2023/03/02 00:09:04;;;;;;;84.80;34.30;;;;;;;5.93;69.12;101342.41;676542;1258;139395;-86
2023/03/02 00:24:08;;;;;;;34.80;18.20;;;;;;;6.06;69.82;101348.92;671691;1262;138748;-86
2023/03/02 00:39:11;;;;;;;36.00;17.20;;;;;;;6.07;70.36;101327.33;670969;1262;138368;-86
2023/03/02 00:54:15;;;;;;;34.60;16.70;;;;;;;6.27;69.49;101309.58;670793;1259;139018;-88
2023/03/02 01:09:19;;;;;;;30.00;14.30;;;;;;;6.19;70.07;101303.91;672021;1278;158593;-84
2023/03/02 01:24:23;;;;;;;22.10;11.90;;;;;;;6.31;69.41;101288.52;671230;1280;139744;-85
2023/03/02 01:39:27;;;;;;;16.80;8.70;;;;;;;6.18;69.73;101284.55;671835;1260;138622;-85
2023/03/02 01:54:30;;;;;;;17.80;7.60;;;;;;;6.39;68.54;101277.01;673460;1263;138745;-86
2023/03/02 02:09:47;;;;;;;11.60;6.60;;;;;;;6.19;68.85;101258.80;671471;1263;138189;-85
2023/03/02 02:24:57;;;;;;;18.00;7.10;;;;;;;6.36;68.40;101250.20;671853;1266;138549;-85
2023/03/02 02:40:07;;;;;;;12.10;6.00;;;;;;;6.22;68.47;101252.52;671337;1263;139351;-85
2023/03/02 02:55:15;;;;;;;26.30;8.10;;;;;;;6.22;67.28;101243.52;670309;1263;138842;-85
2023/03/02 03:10:33;;;;;;;;;;;;;;;6.16;67.22;101242.41;671893;1264;138373;-86
2023/03/02 03:25:37;;;;;;;8.70;5.70;;;;;;;6.13;67.13;101245.34;674756;1259;125482;-85
2023/03/02 03:40:43;;;;;;;12.80;6.40;;;;;;;6.26;66.62;101243.13;669826;1262;139701;-85
2023/03/02 03:55:47;;;;;;;18.10;8.90;;;;;;;5.99;67.43;101229.40;671018;1263;138657;-86
2023/03/02 04:10:50;;;;;;;13.10;8.00;;;;;;;5.83;67.00;101227.83;670728;1265;138284;-86
2023/03/02 04:25:55;;;;;;;19.20;8.80;;;;;;;5.66;67.58;101227.48;672790;1260;138741;-87
2023/03/02 04:40:59;;;;;;;29.40;13.30;;;;;;;5.56;67.39;101232.55;671637;1262;140096;-85
2023/03/02 04:56:03;;;;;;;37.90;17.10;;;;;;;5.74;67.06;101237.36;672380;1263;138570;-85
2023/03/02 05:11:07;;;;;;;74.60;28.40;;;;;;;5.60;67.62;101248.45;670831;1262;139437;-86
2023/03/02 05:26:10;;;;;;;66.00;27.20;;;;;;;5.55;68.08;101255.30;673944;1262;139382;-86
2023/03/02 05:41:15;;;;;;;90.70;38.10;;;;;;;5.73;67.52;101263.23;670000;1262;139493;-88
2023/03/02 05:56:21;;;;;;;57.40;28.30;;;;;;;5.65;67.26;101254.64;671775;1262;138596;-85
2023/03/02 06:11:30;;;;;;;90.50;37.90;;;;;;;5.42;67.19;101254.77;671120;1263;138896;-86
2023/03/02 06:26:34;;;;;;;144.70;63.40;;;;;;;5.09;67.40;101251.55;670197;1281;138743;-84
2023/03/02 06:41:38;;;;;;;65.30;30.90;;;;;;;5.14;67.86;101265.84;671928;1261;139475;-85
2023/03/02 06:56:48;;;;;;;169.70;74.90;;;;;;;6.26;67.97;101271.00;672538;1262;138944;-85
2023/03/02 07:11:51;;;;;;;81.00;33.90;;;;;;;7.54;67.19;101262.23;672677;1262;138959;-87
2023/03/02 07:26:54;;;;;;;42.10;17.70;;;;;;;8.82;66.47;101260.63;673424;1262;138280;-88
2023/03/02 07:41:59;;;;;;;53.50;23.80;;;;;;;9.44;65.45;101256.77;670423;1261;139028;-87
2023/03/02 07:57:04;;;;;;;22.10;13.30;;;;;;;9.85;63.68;101260.63;669868;1262;138858;-87
2023/03/02 08:12:08;;;;;;;20.50;9.20;;;;;;;9.91;62.88;101264.88;670427;1263;139079;-87
2023/03/02 08:27:14;;;;;;;40.90;18.60;;;;;;;10.14;61.65;101259.13;673403;1262;138365;-88
2023/03/02 08:42:17;;;;;;;14.20;6.20;;;;;;;10.82;61.70;101249.70;671929;1262;139211;-86
2023/03/02 08:57:21;;;;;;;9.50;5.00;;;;;;;11.39;61.33;101246.73;672099;1266;138601;-85
2023/03/02 09:12:24;;;;;;;17.60;8.00;;;;;;;11.80;59.87;101242.90;672102;1262;139586;-85
2023/03/02 09:27:27;;;;;;;14.90;6.30;;;;;;;11.92;57.77;101235.96;671542;1262;138602;-84
2023/03/02 09:42:52;;;;;;;12.40;6.60;;;;;;;12.32;56.80;101233.33;670420;1274;137874;-87
2023/03/02 09:58:01;;;;;;;21.20;11.60;;;;;;;12.97;56.01;101220.50;669845;1262;138084;-85
2023/03/02 10:13:27;;;;;;;11.20;5.00;;;;;;;13.49;55.18;101210.71;670596;1262;138641;-86
2023/03/02 10:28:41;;;;;;;14.30;6.90;;;;;;;14.22;54.36;101208.10;669665;1276;138595;-86
2023/03/02 10:43:47;;;;;;;9.10;4.20;;;;;;;14.76;52.32;101198.23;682705;1263;137828;-86
2023/03/02 10:58:50;;;;;;;11.00;5.80;;;;;;;14.13;50.59;101184.16;682464;1263;138258;-86
2023/03/02 11:13:57;;;;;;;10.60;5.10;;;;;;;14.96;51.53;101175.09;682777;1263;138485;-87
2023/03/02 11:29:34;;;;;;;40.00;24.20;;;;;;;15.20;51.18;101162.45;682788;1262;138446;-88
2023/03/02 11:44:37;;;;;;;12.70;4.90;;;;;;;16.30;50.71;101147.54;683038;1263;138203;-87
2023/03/02 11:59:41;;;;;;;11.30;4.80;;;;;;;16.73;50.11;101134.52;682820;1263;137828;-87
2023/03/02 12:14:44;;;;;;;7.50;4.10;;;;;;;16.99;49.76;101119.84;682770;1263;137702;-87
2023/03/02 12:30:08;;;;;;;10.40;4.00;;;;;;;16.78;48.12;101105.03;682619;1261;138348;-86
2023/03/02 12:45:23;;;;;;;12.30;5.10;;;;;;;16.52;46.99;101091.40;682784;1261;137821;-87
2023/03/02 13:00:31;;;;;;;18.10;8.10;;;;;;;16.40;45.76;101080.34;682620;1262;137743;-86
2023/03/02 13:15:35;;;;;;;48.20;34.20;;;;;;;16.43;45.66;101065.95;682560;1257;170795;-83
2023/03/02 13:30:46;;;;;;;54.60;28.10;;;;;;;16.47;46.20;101061.32;682572;1261;138563;-83
2023/03/02 13:46:03;;;;;;;27.70;16.10;;;;;;;17.21;46.21;101041.45;682802;1262;138492;-82
2023/03/02 14:01:09;;;;;;;211.50;84.30;;;;;;;19.41;43.60;101018.37;682633;1258;138624;-83
2023/03/02 14:16:15;;;;;;;77.90;35.10;;;;;;;16.97;44.67;101006.72;682698;1263;138720;-84
2023/03/02 14:31:18;;;;;;;25.70;15.10;;;;;;;21.99;43.29;100983.58;682566;1262;155565;-84
2023/03/02 14:46:22;;;;;;;26.00;13.20;;;;;;;23.50;39.75;100965.58;682571;1263;141481;-86
2023/03/02 15:01:25;;;;;;;33.90;14.40;;;;;;;25.87;37.93;100957.77;682290;1262;138421;-87
2023/03/02 15:16:28;;;;;;;33.90;21.20;;;;;;;25.34;37.33;100941.94;682297;1263;138252;-86
2023/03/02 15:31:32;;;;;;;9.50;5.90;;;;;;;19.40;40.71;100927.48;682289;1263;137995;-85
2023/03/02 15:46:35;;;;;;;52.80;25.30;;;;;;;18.35;43.26;100921.11;682586;1260;139193;-86
2023/03/02 16:01:39;;;;;;;127.30;71.50;;;;;;;20.69;41.79;100907.69;682645;1263;138808;-87
2023/03/02 16:16:45;;;;;;;54.60;25.30;;;;;;;19.28;41.98;100896.41;682247;1263;138512;-86
2023/03/02 16:31:49;;;;;;;214.10;87.70;;;;;;;14.75;44.64;100886.52;682572;1259;139302;-86
2023/03/02 16:46:53;;;;;;;333.90;117.20;;;;;;;12.14;47.84;100879.16;682674;1263;138887;-85
2023/03/02 17:01:59;;;;;;;357.70;147.90;;;;;;;10.57;49.86;100885.73;682563;1259;139065;-86
2023/03/02 17:17:05;;;;;;;410.40;172.00;;;;;;;9.31;51.53;100889.77;682505;1259;138905;-86
2023/03/02 17:32:10;;;;;;;289.70;120.10;;;;;;;8.66;53.24;100891.78;682454;1264;138522;-86
2023/03/02 17:47:14;;;;;;;331.80;127.20;;;;;;;8.22;54.46;100889.39;682611;1264;138400;-85
2023/03/02 18:02:18;;;;;;;346.90;125.10;;;;;;;7.82;55.23;100883.39;682278;1262;138568;-83
2023/03/02 18:17:22;;;;;;;177.80;69.00;;;;;;;7.47;56.29;100880.13;682319;1263;138254;-83
2023/03/02 18:32:26;;;;;;;197.80;74.70;;;;;;;7.16;57.16;100875.14;682568;1262;138526;-85
2023/03/02 18:47:32;;;;;;;234.60;99.30;;;;;;;6.92;57.65;100871.83;682650;1259;137987;-85
2023/03/02 19:02:36;;;;;;;296.80;106.70;;;;;;;6.54;58.07;100875.17;682530;1259;138994;-86
2023/03/02 19:17:42;;;;;;;497.80;170.30;;;;;;;6.29;58.98;100877.27;682501;1260;138328;-85
2023/03/02 19:32:46;;;;;;;266.60;99.60;;;;;;;5.96;59.10;100872.06;682650;1259;138754;-87
2023/03/02 19:47:50;;;;;;;437.20;146.90;;;;;;;5.60;59.77;100871.75;682492;1262;139750;-85
2023/03/02 20:02:54;;;;;;;187.00;74.50;;;;;;;5.31;60.38;100875.29;682422;1262;139248;-84
2023/03/02 20:17:58;;;;;;;379.30;113.10;;;;;;;4.86;60.62;100856.47;682250;1259;139209;-85
2023/03/02 20:33:04;;;;;;;328.30;112.60;;;;;;;4.63;61.61;100858.36;682345;1261;139593;-84
2023/03/02 20:48:12;;;;;;;205.50;83.60;;;;;;;4.62;62.13;100852.90;682365;1261;139127;-84
2023/03/02 21:03:15;;;;;;;308.50;122.30;;;;;;;4.41;62.24;100836.33;682621;1259;139013;-85
2023/03/02 21:18:19;;;;;;;135.20;52.20;;;;;;;4.24;62.90;100824.05;682720;1258;138953;-83
2023/03/02 21:33:22;;;;;;;138.70;58.60;;;;;;;4.14;63.23;100812.07;682439;1260;139184;-85
2023/03/02 21:48:27;;;;;;;160.30;61.00;;;;;;;3.98;63.28;100804.27;682385;1259;138881;-83
2023/03/02 22:03:30;;;;;;;157.20;60.50;;;;;;;3.70;63.85;100788.09;682147;1262;139651;-85
2023/03/02 22:18:34;;;;;;;96.80;39.30;;;;;;;3.47;64.35;100782.50;682338;1262;139084;-83
2023/03/02 22:33:39;;;;;;;95.10;39.20;;;;;;;3.40;64.57;100782.69;682203;1262;138814;-83
2023/03/02 22:48:45;;;;;;;120.30;43.00;;;;;;;3.36;64.58;100781.85;682269;1261;139341;-83
2023/03/02 23:03:52;;;;;;;99.40;35.70;;;;;;;3.32;65.13;100761.27;682286;1262;139162;-84
2023/03/02 23:18:58;;;;;;;68.50;29.80;;;;;;;3.40;66.07;100753.29;682484;1261;139267;-85
2023/03/02 23:34:02;;;;;;;112.10;41.60;;;;;;;3.38;66.29;100740.74;682394;1262;138944;-83
2023/03/02 23:49:05;;;;;;;90.50;36.10;;;;;;;3.26;66.34;100722.33;682449;1265;139462;-83
